sensor_id;sensor_type;location;lat;lon;timestamp;temperature;humidity
3923;DHT22;1976;51.694;6.256;2023-02-24T00:01:37;4.90;99.90
3923;DHT22;1976;51.694;6.256;2023-02-24T00:04:06;4.80;99.90
3923;DHT22;1976;51.694;6.256;2023-02-24T00:06:34;4.80;99.90
3923;DHT22;1976;51.694;6.256;2023-02-24T00:09:08;4.70;99.90
3923;DHT22;1976;51.694;6.256;2023-02-24T00:11:55;4.70;99.90
3923;DHT22;1976;51.694;6.256;2023-02-24T00:14:23;4.60;99.90
3923;DHT22;1976;51.694;6.256;2023-02-24T00:16:50;4.60;99.90
3923;DHT22;1976;51.694;6.256;2023-02-24T00:19:19;4.50;99.90
3923;DHT22;1976;51.694;6.256;2023-02-24T00:21:45;4.50;99.90
3923;DHT22;1976;51.694;6.256;2023-02-24T00:24:11;4.50;99.90
3923;DHT22;1976;51.694;6.256;2023-02-24T00:26:38;4.50;99.90
3923;DHT22;1976;51.694;6.256;2023-02-24T00:29:06;4.40;99.90
3923;DHT22;1976;51.694;6.256;2023-02-24T00:31:33;4.40;99.90
3923;DHT22;1976;51.694;6.256;2023-02-24T00:34:00;4.30;99.90
3923;DHT22;1976;51.694;6.256;2023-02-24T00:36:28;4.20;99.90
3923;DHT22;1976;51.694;6.256;2023-02-24T00:38:56;4.20;99.90
3923;DHT22;1976;51.694;6.256;2023-02-24T00:41:28;4.10;99.90
3923;DHT22;1976;51.694;6.256;2023-02-24T00:43:56;4.00;99.90
3923;DHT22;1976;51.694;6.256;2023-02-24T00:46:24;4.00;99.90
3923;DHT22;1976;51.694;6.256;2023-02-24T00:48:52;4.00;99.90
3923;DHT22;1976;51.694;6.256;2023-02-24T00:51:25;4.00;99.90
3923;DHT22;1976;51.694;6.256;2023-02-24T00:53:55;4.00;99.90
3923;DHT22;1976;51.694;6.256;2023-02-24T00:56:23;4.00;99.90
3923;DHT22;1976;51.694;6.256;2023-02-24T00:58:49;4.20;99.90
3923;DHT22;1976;51.694;6.256;2023-02-24T01:01:17;4.10;99.90
3923;DHT22;1976;51.694;6.256;2023-02-24T01:06:12;4.30;99.90
3923;DHT22;1976;51.694;6.256;2023-02-24T01:08:39;4.50;99.90
3923;DHT22;1976;51.694;6.256;2023-02-24T01:11:07;4.50;99.90
3923;DHT22;1976;51.694;6.256;2023-02-24T01:13:51;4.70;99.90
3923;DHT22;1976;51.694;6.256;2023-02-24T01:16:17;4.70;99.90
3923;DHT22;1976;51.694;6.256;2023-02-24T01:18:46;4.80;99.90
3923;DHT22;1976;51.694;6.256;2023-02-24T01:21:13;4.90;99.90
3923;DHT22;1976;51.694;6.256;2023-02-24T01:23:41;4.90;99.90
3923;DHT22;1976;51.694;6.256;2023-02-24T01:26:07;5.00;99.90
3923;DHT22;1976;51.694;6.256;2023-02-24T01:28:34;5.00;99.90
3923;DHT22;1976;51.694;6.256;2023-02-24T01:31:01;5.00;99.90
3923;DHT22;1976;51.694;6.256;2023-02-24T01:33:27;5.10;99.90
3923;DHT22;1976;51.694;6.256;2023-02-24T01:35:56;5.10;99.90
3923;DHT22;1976;51.694;6.256;2023-02-24T01:38:22;5.10;99.90
3923;DHT22;1976;51.694;6.256;2023-02-24T01:40:58;5.10;99.90
3923;DHT22;1976;51.694;6.256;2023-02-24T01:43:24;5.10;99.90
3923;DHT22;1976;51.694;6.256;2023-02-24T01:45:52;5.10;99.90
3923;DHT22;1976;51.694;6.256;2023-02-24T01:50:45;5.20;99.90
3923;DHT22;1976;51.694;6.256;2023-02-24T01:53:11;5.20;99.90
3923;DHT22;1976;51.694;6.256;2023-02-24T01:55:42;5.20;99.90
3923;DHT22;1976;51.694;6.256;2023-02-24T01:58:22;5.30;99.90
3923;DHT22;1976;51.694;6.256;2023-02-24T02:00:50;5.30;99.90
3923;DHT22;1976;51.694;6.256;2023-02-24T02:03:27;5.30;99.90
3923;DHT22;1976;51.694;6.256;2023-02-24T02:05:59;5.40;99.90
3923;DHT22;1976;51.694;6.256;2023-02-24T02:08:25;5.40;99.90
3923;DHT22;1976;51.694;6.256;2023-02-24T02:10:51;5.40;99.90
3923;DHT22;1976;51.694;6.256;2023-02-24T02:13:24;5.40;99.90
3923;DHT22;1976;51.694;6.256;2023-02-24T02:16:22;5.40;99.90
3923;DHT22;1976;51.694;6.256;2023-02-24T02:18:53;5.40;99.90
3923;DHT22;1976;51.694;6.256;2023-02-24T02:21:56;5.40;99.90
3923;DHT22;1976;51.694;6.256;2023-02-24T02:24:47;5.40;99.90
3923;DHT22;1976;51.694;6.256;2023-02-24T02:27:27;5.30;99.90
3923;DHT22;1976;51.694;6.256;2023-02-24T02:38:26;5.30;99.90
3923;DHT22;1976;51.694;6.256;2023-02-24T02:41:35;5.30;99.90
3923;DHT22;1976;51.694;6.256;2023-02-24T02:44:18;5.20;99.90
3923;DHT22;1976;51.694;6.256;2023-02-24T02:46:55;5.20;99.90
3923;DHT22;1976;51.694;6.256;2023-02-24T02:49:32;5.20;99.90
3923;DHT22;1976;51.694;6.256;2023-02-24T02:52:14;5.20;99.90
3923;DHT22;1976;51.694;6.256;2023-02-24T02:54:49;5.10;99.90
3923;DHT22;1976;51.694;6.256;2023-02-24T02:57:22;5.10;99.90
3923;DHT22;1976;51.694;6.256;2023-02-24T03:00:17;4.90;99.90
3923;DHT22;1976;51.694;6.256;2023-02-24T03:02:53;4.90;99.90
3923;DHT22;1976;51.694;6.256;2023-02-24T03:05:26;4.70;99.90
3923;DHT22;1976;51.694;6.256;2023-02-24T03:07:56;4.70;99.90
3923;DHT22;1976;51.694;6.256;2023-02-24T03:10:25;4.50;99.90
3923;DHT22;1976;51.694;6.256;2023-02-24T03:12:54;4.50;99.90
3923;DHT22;1976;51.694;6.256;2023-02-24T03:15:24;4.50;99.90
3923;DHT22;1976;51.694;6.256;2023-02-24T03:17:58;4.40;99.90
3923;DHT22;1976;51.694;6.256;2023-02-24T03:20:34;4.30;99.90
3923;DHT22;1976;51.694;6.256;2023-02-24T03:23:10;4.40;99.90
3923;DHT22;1976;51.694;6.256;2023-02-24T03:28:33;4.20;99.90
3923;DHT22;1976;51.694;6.256;2023-02-24T03:31:24;4.30;99.90
3923;DHT22;1976;51.694;6.256;2023-02-24T03:34:17;4.10;99.90
3923;DHT22;1976;51.694;6.256;2023-02-24T03:36:43;4.10;99.90
3923;DHT22;1976;51.694;6.256;2023-02-24T03:39:09;4.10;99.90
3923;DHT22;1976;51.694;6.256;2023-02-24T03:41:54;4.10;99.90
3923;DHT22;1976;51.694;6.256;2023-02-24T03:44:22;4.10;99.90
3923;DHT22;1976;51.694;6.256;2023-02-24T03:46:50;4.10;99.90
3923;DHT22;1976;51.694;6.256;2023-02-24T03:49:16;4.10;99.90
3923;DHT22;1976;51.694;6.256;2023-02-24T04:00:45;3.90;99.90
3923;DHT22;1976;51.694;6.256;2023-02-24T04:03:28;3.90;99.90
3923;DHT22;1976;51.694;6.256;2023-02-24T04:06:20;3.80;99.90
3923;DHT22;1976;51.694;6.256;2023-02-24T04:12:14;3.70;99.90
3923;DHT22;1976;51.694;6.256;2023-02-24T04:17:25;3.50;99.90
3923;DHT22;1976;51.694;6.256;2023-02-24T04:19:54;3.50;99.90
3923;DHT22;1976;51.694;6.256;2023-02-24T04:22:23;3.50;99.90
3923;DHT22;1976;51.694;6.256;2023-02-24T04:24:54;3.50;99.90
3923;DHT22;1976;51.694;6.256;2023-02-24T04:27:22;3.50;99.90
3923;DHT22;1976;51.694;6.256;2023-02-24T04:29:54;3.50;99.90
3923;DHT22;1976;51.694;6.256;2023-02-24T04:32:23;3.50;99.90
3923;DHT22;1976;51.694;6.256;2023-02-24T04:34:51;3.50;99.90
3923;DHT22;1976;51.694;6.256;2023-02-24T04:37:18;3.50;99.90
3923;DHT22;1976;51.694;6.256;2023-02-24T04:39:48;3.40;99.90
3923;DHT22;1976;51.694;6.256;2023-02-24T04:42:15;3.40;99.90
3923;DHT22;1976;51.694;6.256;2023-02-24T04:44:41;3.40;99.90
3923;DHT22;1976;51.694;6.256;2023-02-24T04:47:09;3.30;99.90
3923;DHT22;1976;51.694;6.256;2023-02-24T04:49:35;3.30;99.90
3923;DHT22;1976;51.694;6.256;2023-02-24T04:52:00;3.30;99.90
3923;DHT22;1976;51.694;6.256;2023-02-24T04:54:26;3.30;99.90
3923;DHT22;1976;51.694;6.256;2023-02-24T04:56:54;3.30;99.90
3923;DHT22;1976;51.694;6.256;2023-02-24T04:59:20;3.30;99.90
3923;DHT22;1976;51.694;6.256;2023-02-24T05:01:47;3.30;99.90
3923;DHT22;1976;51.694;6.256;2023-02-24T05:04:16;3.30;99.90
3923;DHT22;1976;51.694;6.256;2023-02-24T05:06:42;3.40;99.90
3923;DHT22;1976;51.694;6.256;2023-02-24T05:09:13;3.40;99.90
3923;DHT22;1976;51.694;6.256;2023-02-24T05:11:41;3.40;99.90
3923;DHT22;1976;51.694;6.256;2023-02-24T05:14:09;3.40;99.90
3923;DHT22;1976;51.694;6.256;2023-02-24T05:16:42;3.40;99.90
3923;DHT22;1976;51.694;6.256;2023-02-24T05:19:13;3.40;99.90
3923;DHT22;1976;51.694;6.256;2023-02-24T05:21:58;3.40;99.90
3923;DHT22;1976;51.694;6.256;2023-02-24T05:24:25;3.40;99.90
3923;DHT22;1976;51.694;6.256;2023-02-24T05:26:51;3.50;99.90
3923;DHT22;1976;51.694;6.256;2023-02-24T05:29:23;3.50;99.90
3923;DHT22;1976;51.694;6.256;2023-02-24T05:31:50;3.60;99.90
3923;DHT22;1976;51.694;6.256;2023-02-24T05:34:19;3.70;99.90
3923;DHT22;1976;51.694;6.256;2023-02-24T05:36:45;3.60;99.90
3923;DHT22;1976;51.694;6.256;2023-02-24T05:39:11;3.60;99.90
3923;DHT22;1976;51.694;6.256;2023-02-24T05:41:43;3.50;99.90
3923;DHT22;1976;51.694;6.256;2023-02-24T05:44:12;3.50;99.90
3923;DHT22;1976;51.694;6.256;2023-02-24T05:46:42;3.60;99.90
3923;DHT22;1976;51.694;6.256;2023-02-24T05:49:17;3.50;99.90
3923;DHT22;1976;51.694;6.256;2023-02-24T05:51:52;3.50;99.90
3923;DHT22;1976;51.694;6.256;2023-02-24T05:54:40;3.50;99.90
3923;DHT22;1976;51.694;6.256;2023-02-24T05:57:10;3.50;99.90
3923;DHT22;1976;51.694;6.256;2023-02-24T05:59:38;3.50;99.90
3923;DHT22;1976;51.694;6.256;2023-02-24T06:02:07;3.50;99.90
3923;DHT22;1976;51.694;6.256;2023-02-24T06:04:38;3.50;99.90
3923;DHT22;1976;51.694;6.256;2023-02-24T06:07:25;3.50;99.90
3923;DHT22;1976;51.694;6.256;2023-02-24T06:09:53;3.50;99.90
3923;DHT22;1976;51.694;6.256;2023-02-24T06:12:22;3.60;99.90
3923;DHT22;1976;51.694;6.256;2023-02-24T06:14:48;3.60;99.90
3923;DHT22;1976;51.694;6.256;2023-02-24T06:17:15;3.60;99.90
3923;DHT22;1976;51.694;6.256;2023-02-24T06:19:42;3.60;99.90
3923;DHT22;1976;51.694;6.256;2023-02-24T06:22:11;3.80;99.90
3923;DHT22;1976;51.694;6.256;2023-02-24T06:24:37;3.80;99.90
3923;DHT22;1976;51.694;6.256;2023-02-24T06:27:09;3.80;99.90
3923;DHT22;1976;51.694;6.256;2023-02-24T06:29:37;3.80;99.90
3923;DHT22;1976;51.694;6.256;2023-02-24T06:32:04;3.90;99.90
3923;DHT22;1976;51.694;6.256;2023-02-24T06:34:37;3.90;99.90
3923;DHT22;1976;51.694;6.256;2023-02-24T06:37:03;3.80;99.90
3923;DHT22;1976;51.694;6.256;2023-02-24T06:39:30;3.80;99.90
3923;DHT22;1976;51.694;6.256;2023-02-24T06:42:02;3.80;99.90
3923;DHT22;1976;51.694;6.256;2023-02-24T06:44:34;3.70;99.90
3923;DHT22;1976;51.694;6.256;2023-02-24T06:47:01;3.70;99.90
3923;DHT22;1976;51.694;6.256;2023-02-24T06:49:27;3.70;99.90
3923;DHT22;1976;51.694;6.256;2023-02-24T06:51:54;3.80;99.90
3923;DHT22;1976;51.694;6.256;2023-02-24T06:54:23;3.90;99.90
3923;DHT22;1976;51.694;6.256;2023-02-24T06:56:53;3.80;99.90
3923;DHT22;1976;51.694;6.256;2023-02-24T06:59:18;3.90;99.90
3923;DHT22;1976;51.694;6.256;2023-02-24T07:01:47;3.90;99.90
3923;DHT22;1976;51.694;6.256;2023-02-24T07:04:14;4.00;99.90
3923;DHT22;1976;51.694;6.256;2023-02-24T07:06:45;4.00;99.90
3923;DHT22;1976;51.694;6.256;2023-02-24T07:09:15;4.10;99.90
3923;DHT22;1976;51.694;6.256;2023-02-24T07:11:44;4.20;99.90
3923;DHT22;1976;51.694;6.256;2023-02-24T07:14:17;4.20;99.90
3923;DHT22;1976;51.694;6.256;2023-02-24T07:16:43;4.20;99.90
3923;DHT22;1976;51.694;6.256;2023-02-24T07:19:14;4.30;99.90
3923;DHT22;1976;51.694;6.256;2023-02-24T07:21:44;4.30;99.90
3923;DHT22;1976;51.694;6.256;2023-02-24T07:24:16;4.30;99.90
3923;DHT22;1976;51.694;6.256;2023-02-24T07:26:55;4.40;99.90
3923;DHT22;1976;51.694;6.256;2023-02-24T07:29:22;4.30;99.90
3923;DHT22;1976;51.694;6.256;2023-02-24T07:31:48;4.30;99.90
3923;DHT22;1976;51.694;6.256;2023-02-24T07:34:14;4.40;99.90
3923;DHT22;1976;51.694;6.256;2023-02-24T07:36:47;4.40;99.90
3923;DHT22;1976;51.694;6.256;2023-02-24T07:39:17;4.50;99.90
3923;DHT22;1976;51.694;6.256;2023-02-24T07:41:44;4.50;99.90
3923;DHT22;1976;51.694;6.256;2023-02-24T07:44:11;4.50;99.90
3923;DHT22;1976;51.694;6.256;2023-02-24T07:46:38;4.50;99.90
3923;DHT22;1976;51.694;6.256;2023-02-24T07:49:05;4.50;99.90
3923;DHT22;1976;51.694;6.256;2023-02-24T07:51:34;4.50;99.90
3923;DHT22;1976;51.694;6.256;2023-02-24T07:54:00;4.50;99.90
3923;DHT22;1976;51.694;6.256;2023-02-24T07:56:29;4.50;99.90
3923;DHT22;1976;51.694;6.256;2023-02-24T07:59:00;4.50;99.90
3923;DHT22;1976;51.694;6.256;2023-02-24T08:01:32;4.70;99.90
3923;DHT22;1976;51.694;6.256;2023-02-24T08:04:04;4.70;99.90
3923;DHT22;1976;51.694;6.256;2023-02-24T08:06:34;4.80;99.90
3923;DHT22;1976;51.694;6.256;2023-02-24T08:09:06;4.80;99.90
3923;DHT22;1976;51.694;6.256;2023-02-24T08:11:42;4.80;99.90
3923;DHT22;1976;51.694;6.256;2023-02-24T08:14:12;4.90;99.90
3923;DHT22;1976;51.694;6.256;2023-02-24T08:16:42;4.80;99.90
3923;DHT22;1976;51.694;6.256;2023-02-24T08:19:10;4.90;99.90
3923;DHT22;1976;51.694;6.256;2023-02-24T08:21:41;4.90;99.90
3923;DHT22;1976;51.694;6.256;2023-02-24T08:24:14;5.00;99.90
3923;DHT22;1976;51.694;6.256;2023-02-24T08:26:47;5.00;99.90
3923;DHT22;1976;51.694;6.256;2023-02-24T08:29:28;5.00;99.90
3923;DHT22;1976;51.694;6.256;2023-02-24T08:31:56;5.00;99.90
3923;DHT22;1976;51.694;6.256;2023-02-24T08:34:22;5.00;99.90
3923;DHT22;1976;51.694;6.256;2023-02-24T08:36:52;5.00;99.90
3923;DHT22;1976;51.694;6.256;2023-02-24T08:39:21;5.10;99.90
3923;DHT22;1976;51.694;6.256;2023-02-24T08:41:47;5.10;99.90
3923;DHT22;1976;51.694;6.256;2023-02-24T08:44:16;5.20;99.90
3923;DHT22;1976;51.694;6.256;2023-02-24T08:46:46;5.20;99.90
3923;DHT22;1976;51.694;6.256;2023-02-24T08:49:15;5.40;99.90
3923;DHT22;1976;51.694;6.256;2023-02-24T08:51:43;5.40;99.90
3923;DHT22;1976;51.694;6.256;2023-02-24T08:54:12;5.50;99.90
3923;DHT22;1976;51.694;6.256;2023-02-24T08:56:46;5.50;99.90
3923;DHT22;1976;51.694;6.256;2023-02-24T08:59:21;5.60;99.90
3923;DHT22;1976;51.694;6.256;2023-02-24T09:01:56;5.60;99.90
3923;DHT22;1976;51.694;6.256;2023-02-24T09:04:39;5.60;99.90
3923;DHT22;1976;51.694;6.256;2023-02-24T09:07:04;5.70;99.90
3923;DHT22;1976;51.694;6.256;2023-02-24T09:09:35;5.70;99.90
3923;DHT22;1976;51.694;6.256;2023-02-24T09:12:06;5.70;99.90
3923;DHT22;1976;51.694;6.256;2023-02-24T09:14:33;5.70;99.90
3923;DHT22;1976;51.694;6.256;2023-02-24T09:17:04;5.70;99.90
3923;DHT22;1976;51.694;6.256;2023-02-24T09:19:41;5.60;99.90
3923;DHT22;1976;51.694;6.256;2023-02-24T09:22:22;5.60;99.90
3923;DHT22;1976;51.694;6.256;2023-02-24T09:25:01;5.50;99.90
3923;DHT22;1976;51.694;6.256;2023-02-24T09:28:04;5.40;99.90
3923;DHT22;1976;51.694;6.256;2023-02-24T09:30:35;5.40;99.90
3923;DHT22;1976;51.694;6.256;2023-02-24T09:36:03;5.50;99.90
3923;DHT22;1976;51.694;6.256;2023-02-24T09:38:41;5.60;99.90
3923;DHT22;1976;51.694;6.256;2023-02-24T09:41:43;5.70;99.90
3923;DHT22;1976;51.694;6.256;2023-02-24T09:44:51;5.70;99.90
3923;DHT22;1976;51.694;6.256;2023-02-24T09:47:46;5.60;99.90
3923;DHT22;1976;51.694;6.256;2023-02-24T09:52:57;5.50;99.90
3923;DHT22;1976;51.694;6.256;2023-02-24T09:55:47;5.50;99.90
3923;DHT22;1976;51.694;6.256;2023-02-24T10:06:44;5.20;99.90
3923;DHT22;1976;51.694;6.256;2023-02-24T10:12:04;5.10;99.90
3923;DHT22;1976;51.694;6.256;2023-02-24T10:17:39;4.80;99.90
3923;DHT22;1976;51.694;6.256;2023-02-24T10:20:17;4.80;99.90
3923;DHT22;1976;51.694;6.256;2023-02-24T10:23:21;4.60;99.90
3923;DHT22;1976;51.694;6.256;2023-02-24T10:26:14;4.40;99.90
3923;DHT22;1976;51.694;6.256;2023-02-24T10:29:05;4.40;99.90
3923;DHT22;1976;51.694;6.256;2023-02-24T10:32:17;4.40;99.90
3923;DHT22;1976;51.694;6.256;2023-02-24T10:34:41;4.30;99.90
3923;DHT22;1976;51.694;6.256;2023-02-24T10:37:14;4.30;99.90
3923;DHT22;1976;51.694;6.256;2023-02-24T10:39:44;4.30;99.90
3923;DHT22;1976;51.694;6.256;2023-02-24T10:42:22;4.30;99.90
3923;DHT22;1976;51.694;6.256;2023-02-24T10:44:49;4.30;99.90
3923;DHT22;1976;51.694;6.256;2023-02-24T10:47:23;4.40;99.90
3923;DHT22;1976;51.694;6.256;2023-02-24T10:49:58;4.40;99.90
3923;DHT22;1976;51.694;6.256;2023-02-24T10:52:31;4.40;99.90
3923;DHT22;1976;51.694;6.256;2023-02-24T10:55:08;4.30;99.90
3923;DHT22;1976;51.694;6.256;2023-02-24T10:58:03;4.30;99.90
3923;DHT22;1976;51.694;6.256;2023-02-24T11:00:46;4.30;99.90
3923;DHT22;1976;51.694;6.256;2023-02-24T11:03:32;4.40;99.90
3923;DHT22;1976;51.694;6.256;2023-02-24T11:06:20;4.40;99.90
3923;DHT22;1976;51.694;6.256;2023-02-24T11:09:20;4.50;99.90
3923;DHT22;1976;51.694;6.256;2023-02-24T11:11:56;4.60;99.90
3923;DHT22;1976;51.694;6.256;2023-02-24T11:14:54;4.60;99.90
3923;DHT22;1976;51.694;6.256;2023-02-24T11:17:54;4.60;99.90
3923;DHT22;1976;51.694;6.256;2023-02-24T11:23:05;4.60;99.90
3923;DHT22;1976;51.694;6.256;2023-02-24T11:28:01;4.60;99.90
3923;DHT22;1976;51.694;6.256;2023-02-24T11:33:31;4.70;99.90
3923;DHT22;1976;51.694;6.256;2023-02-24T11:36:32;4.80;99.90
3923;DHT22;1976;51.694;6.256;2023-02-24T11:39:06;4.80;99.90
3923;DHT22;1976;51.694;6.256;2023-02-24T11:41:46;4.80;99.90
3923;DHT22;1976;51.694;6.256;2023-02-24T11:46:49;4.90;99.90
3923;DHT22;1976;51.694;6.256;2023-02-24T11:49:39;4.90;99.90
3923;DHT22;1976;51.694;6.256;2023-02-24T11:52:11;4.90;99.90
3923;DHT22;1976;51.694;6.256;2023-02-24T11:54:43;4.90;99.90
3923;DHT22;1976;51.694;6.256;2023-02-24T11:57:18;5.00;99.90
3923;DHT22;1976;51.694;6.256;2023-02-24T11:59:50;5.00;99.90
3923;DHT22;1976;51.694;6.256;2023-02-24T12:05:14;5.10;99.90
3923;DHT22;1976;51.694;6.256;2023-02-24T12:07:57;5.00;99.90
3923;DHT22;1976;51.694;6.256;2023-02-24T12:10:35;5.10;99.90
3923;DHT22;1976;51.694;6.256;2023-02-24T12:16:12;5.10;99.90
3923;DHT22;1976;51.694;6.256;2023-02-24T12:19:03;5.10;99.90
3923;DHT22;1976;51.694;6.256;2023-02-24T12:21:35;5.10;99.90
3923;DHT22;1976;51.694;6.256;2023-02-24T12:24:04;5.10;99.90
3923;DHT22;1976;51.694;6.256;2023-02-24T12:26:41;5.10;99.90
3923;DHT22;1976;51.694;6.256;2023-02-24T12:32:18;5.20;99.90
3923;DHT22;1976;51.694;6.256;2023-02-24T12:37:58;5.20;99.90
3923;DHT22;1976;51.694;6.256;2023-02-24T13:00:04;5.50;99.90
3923;DHT22;1976;51.694;6.256;2023-02-24T13:02:46;5.50;99.90
3923;DHT22;1976;51.694;6.256;2023-02-24T13:05:47;5.60;99.90
3923;DHT22;1976;51.694;6.256;2023-02-24T13:08:29;5.60;99.90
3923;DHT22;1976;51.694;6.256;2023-02-24T13:11:17;5.50;99.90
3923;DHT22;1976;51.694;6.256;2023-02-24T13:14:26;5.40;99.90
3923;DHT22;1976;51.694;6.256;2023-02-24T13:25:27;5.60;99.90
3923;DHT22;1976;51.694;6.256;2023-02-24T13:27:38;5.60;99.90
3923;DHT22;1976;51.694;6.256;2023-02-24T13:32:41;5.70;99.90
3923;DHT22;1976;51.694;6.256;2023-02-24T13:37:45;6.00;99.90
3923;DHT22;1976;51.694;6.256;2023-02-24T13:42:42;6.00;99.90
3923;DHT22;1976;51.694;6.256;2023-02-24T13:50:22;6.00;99.90
3923;DHT22;1976;51.694;6.256;2023-02-24T14:01:17;6.40;99.90
3923;DHT22;1976;51.694;6.256;2023-02-24T14:04:03;6.40;99.90
3923;DHT22;1976;51.694;6.256;2023-02-24T14:06:29;6.50;99.90
3923;DHT22;1976;51.694;6.256;2023-02-24T14:09:00;6.50;99.90
3923;DHT22;1976;51.694;6.256;2023-02-24T14:11:31;6.60;99.90
3923;DHT22;1976;51.694;6.256;2023-02-24T14:13:59;6.60;99.90
3923;DHT22;1976;51.694;6.256;2023-02-24T14:16:35;6.70;99.90
3923;DHT22;1976;51.694;6.256;2023-02-24T14:19:08;6.70;99.90
3923;DHT22;1976;51.694;6.256;2023-02-24T14:21:36;6.80;99.90
3923;DHT22;1976;51.694;6.256;2023-02-24T14:24:08;7.10;99.90
3923;DHT22;1976;51.694;6.256;2023-02-24T14:26:52;7.20;99.90
3923;DHT22;1976;51.694;6.256;2023-02-24T14:29:24;7.20;99.90
3923;DHT22;1976;51.694;6.256;2023-02-24T14:31:55;7.30;99.90
3923;DHT22;1976;51.694;6.256;2023-02-24T14:34:23;7.50;99.90
3923;DHT22;1976;51.694;6.256;2023-02-24T14:37:01;7.50;99.90
3923;DHT22;1976;51.694;6.256;2023-02-24T14:39:29;7.50;99.90
3923;DHT22;1976;51.694;6.256;2023-02-24T14:44:46;7.80;99.90
3923;DHT22;1976;51.694;6.256;2023-02-24T14:47:13;7.80;99.90
3923;DHT22;1976;51.694;6.256;2023-02-24T14:49:39;7.80;99.90
3923;DHT22;1976;51.694;6.256;2023-02-24T14:52:55;7.80;99.90
3923;DHT22;1976;51.694;6.256;2023-02-24T14:57:36;7.80;99.90
3923;DHT22;1976;51.694;6.256;2023-02-24T15:00:11;7.80;99.90
3923;DHT22;1976;51.694;6.256;2023-02-24T15:02:45;7.80;99.90
3923;DHT22;1976;51.694;6.256;2023-02-24T15:05:12;7.80;99.90
3923;DHT22;1976;51.694;6.256;2023-02-24T15:07:43;7.80;99.90
3923;DHT22;1976;51.694;6.256;2023-02-24T15:10:21;7.60;99.90
3923;DHT22;1976;51.694;6.256;2023-02-24T15:12:53;7.60;99.90
3923;DHT22;1976;51.694;6.256;2023-02-24T15:15:25;7.50;99.90
3923;DHT22;1976;51.694;6.256;2023-02-24T15:18:09;7.50;99.90
3923;DHT22;1976;51.694;6.256;2023-02-24T15:20:37;7.20;99.90
3923;DHT22;1976;51.694;6.256;2023-02-24T15:23:18;7.10;99.90
3923;DHT22;1976;51.694;6.256;2023-02-24T15:25:48;7.00;99.90
3923;DHT22;1976;51.694;6.256;2023-02-24T15:28:35;7.10;99.90
3923;DHT22;1976;51.694;6.256;2023-02-24T15:31:06;7.10;99.90
3923;DHT22;1976;51.694;6.256;2023-02-24T15:33:38;7.20;99.90
3923;DHT22;1976;51.694;6.256;2023-02-24T15:36:18;7.20;99.90
3923;DHT22;1976;51.694;6.256;2023-02-24T15:38:45;7.10;99.90
3923;DHT22;1976;51.694;6.256;2023-02-24T15:41:12;7.20;99.90
3923;DHT22;1976;51.694;6.256;2023-02-24T15:43:49;7.10;99.90
3923;DHT22;1976;51.694;6.256;2023-02-24T15:46:34;7.00;99.90
3923;DHT22;1976;51.694;6.256;2023-02-24T15:49:00;7.00;99.90
3923;DHT22;1976;51.694;6.256;2023-02-24T15:51:39;7.00;99.90
3923;DHT22;1976;51.694;6.256;2023-02-24T15:54:18;7.00;99.90
3923;DHT22;1976;51.694;6.256;2023-02-24T15:56:45;7.00;99.90
3923;DHT22;1976;51.694;6.256;2023-02-24T15:59:18;7.00;99.90
3923;DHT22;1976;51.694;6.256;2023-02-24T16:01:46;6.90;99.90
3923;DHT22;1976;51.694;6.256;2023-02-24T16:04:12;6.90;99.90
3923;DHT22;1976;51.694;6.256;2023-02-24T16:06:39;7.00;99.90
3923;DHT22;1976;51.694;6.256;2023-02-24T16:09:13;7.00;99.90
3923;DHT22;1976;51.694;6.256;2023-02-24T16:11:41;7.00;99.90
3923;DHT22;1976;51.694;6.256;2023-02-24T16:14:12;6.90;99.90
3923;DHT22;1976;51.694;6.256;2023-02-24T16:16:39;6.90;99.90
3923;DHT22;1976;51.694;6.256;2023-02-24T16:19:05;6.80;99.90
3923;DHT22;1976;51.694;6.256;2023-02-24T16:21:31;6.80;99.90
3923;DHT22;1976;51.694;6.256;2023-02-24T16:23:57;6.70;99.90
3923;DHT22;1976;51.694;6.256;2023-02-24T16:26:23;6.70;99.90
3923;DHT22;1976;51.694;6.256;2023-02-24T16:28:57;6.70;99.90
3923;DHT22;1976;51.694;6.256;2023-02-24T16:31:24;6.70;99.90
3923;DHT22;1976;51.694;6.256;2023-02-24T16:36:16;6.90;99.90
3923;DHT22;1976;51.694;6.256;2023-02-24T16:38:42;6.90;99.90
3923;DHT22;1976;51.694;6.256;2023-02-24T16:41:11;6.90;99.90
3923;DHT22;1976;51.694;6.256;2023-02-24T16:43:37;7.00;99.90
3923;DHT22;1976;51.694;6.256;2023-02-24T16:46:05;7.00;99.90
3923;DHT22;1976;51.694;6.256;2023-02-24T16:48:32;7.00;99.90
3923;DHT22;1976;51.694;6.256;2023-02-24T16:51:03;6.90;99.90
3923;DHT22;1976;51.694;6.256;2023-02-24T16:53:30;6.90;99.90
3923;DHT22;1976;51.694;6.256;2023-02-24T16:55:56;7.00;99.90
3923;DHT22;1976;51.694;6.256;2023-02-24T16:58:21;7.00;99.90
3923;DHT22;1976;51.694;6.256;2023-02-24T17:00:55;7.00;99.90
3923;DHT22;1976;51.694;6.256;2023-02-24T17:03:27;7.00;99.90
3923;DHT22;1976;51.694;6.256;2023-02-24T17:05:54;7.00;99.90
3923;DHT22;1976;51.694;6.256;2023-02-24T17:08:20;7.00;99.90
3923;DHT22;1976;51.694;6.256;2023-02-24T17:10:48;7.00;99.90
3923;DHT22;1976;51.694;6.256;2023-02-24T17:13:17;7.10;99.90
3923;DHT22;1976;51.694;6.256;2023-02-24T17:15:43;7.10;99.90
3923;DHT22;1976;51.694;6.256;2023-02-24T17:18:09;7.10;99.90
3923;DHT22;1976;51.694;6.256;2023-02-24T17:20:38;7.10;99.90
3923;DHT22;1976;51.694;6.256;2023-02-24T17:23:04;7.10;99.90
3923;DHT22;1976;51.694;6.256;2023-02-24T17:25:31;7.10;99.90
3923;DHT22;1976;51.694;6.256;2023-02-24T17:27:58;7.10;99.90
3923;DHT22;1976;51.694;6.256;2023-02-24T17:30:26;7.10;99.90
3923;DHT22;1976;51.694;6.256;2023-02-24T17:35:18;7.00;99.90
3923;DHT22;1976;51.694;6.256;2023-02-24T17:37:44;7.00;99.90
3923;DHT22;1976;51.694;6.256;2023-02-24T17:40:10;7.00;99.90
3923;DHT22;1976;51.694;6.256;2023-02-24T17:42:36;6.90;99.90
3923;DHT22;1976;51.694;6.256;2023-02-24T17:45:03;6.90;99.90
3923;DHT22;1976;51.694;6.256;2023-02-24T17:47:31;6.80;99.90
3923;DHT22;1976;51.694;6.256;2023-02-24T17:49:59;6.70;99.90
3923;DHT22;1976;51.694;6.256;2023-02-24T17:52:25;6.70;99.90
3923;DHT22;1976;51.694;6.256;2023-02-24T17:54:51;6.50;99.90
3923;DHT22;1976;51.694;6.256;2023-02-24T17:57:17;6.40;99.90
3923;DHT22;1976;51.694;6.256;2023-02-24T17:59:43;6.40;99.90
3923;DHT22;1976;51.694;6.256;2023-02-24T18:02:15;6.20;99.90
3923;DHT22;1976;51.694;6.256;2023-02-24T18:04:41;6.20;99.90
3923;DHT22;1976;51.694;6.256;2023-02-24T18:07:08;6.10;99.90
3923;DHT22;1976;51.694;6.256;2023-02-24T18:09:34;6.10;99.90
3923;DHT22;1976;51.694;6.256;2023-02-24T18:12:00;6.00;99.90
3923;DHT22;1976;51.694;6.256;2023-02-24T18:14:26;6.00;99.90
3923;DHT22;1976;51.694;6.256;2023-02-24T18:16:51;6.00;99.90
3923;DHT22;1976;51.694;6.256;2023-02-24T18:19:17;6.00;99.90
3923;DHT22;1976;51.694;6.256;2023-02-24T18:21:43;6.00;99.90
3923;DHT22;1976;51.694;6.256;2023-02-24T18:24:09;6.00;99.90
3923;DHT22;1976;51.694;6.256;2023-02-24T18:26:35;6.10;99.90
3923;DHT22;1976;51.694;6.256;2023-02-24T18:31:27;6.10;99.90
3923;DHT22;1976;51.694;6.256;2023-02-24T18:33:55;6.20;99.90
3923;DHT22;1976;51.694;6.256;2023-02-24T18:36:21;6.20;99.90
3923;DHT22;1976;51.694;6.256;2023-02-24T18:38:47;6.20;99.90
3923;DHT22;1976;51.694;6.256;2023-02-24T18:41:18;6.30;99.90
3923;DHT22;1976;51.694;6.256;2023-02-24T18:43:48;6.30;99.90
3923;DHT22;1976;51.694;6.256;2023-02-24T18:46:15;6.30;99.90
3923;DHT22;1976;51.694;6.256;2023-02-24T18:48:41;6.40;99.90
3923;DHT22;1976;51.694;6.256;2023-02-24T18:51:10;6.40;99.90
3923;DHT22;1976;51.694;6.256;2023-02-24T18:53:36;6.40;99.90
3923;DHT22;1976;51.694;6.256;2023-02-24T18:56:08;6.40;99.90
3923;DHT22;1976;51.694;6.256;2023-02-24T18:58:35;6.40;99.90
3923;DHT22;1976;51.694;6.256;2023-02-24T19:01:12;6.30;99.90
3923;DHT22;1976;51.694;6.256;2023-02-24T19:03:38;6.20;99.90
3923;DHT22;1976;51.694;6.256;2023-02-24T19:06:03;6.10;99.90